Time;durP1;ratioP1;P1;durP2;ratioP2;P2;SDS_P1;SDS_P2;PMS_P1;PMS_P2;Temp;Humidity;BMP_temperature;BMP_pressure;BME280_temperature;BME280_humidity;BME280_pressure;Samples;Min_cycle;Max_cycle;Signal;HPM_P1;HPM_P2
2021/12/06 00:00:24;;;;;;;27.63;21.08;;;3.60;99.90;;;;;;5075740;28;20051;-80
2021/12/06 00:02:52;;;;;;;26.63;20.17;;;3.50;99.90;;;;;;5093549;28;20441;-80
2021/12/06 00:05:18;;;;;;;27.60;21.13;;;3.40;99.90;;;;;;5091663;28;20122;-80
2021/12/06 00:07:44;;;;;;;26.15;20.23;;;3.40;99.90;;;;;;5092240;28;20277;-74
2021/12/06 00:10:12;;;;;;;25.38;20.58;;;3.40;99.90;;;;;;5104985;28;20039;-79
2021/12/06 00:12:37;;;;;;;26.17;20.80;;;3.40;99.90;;;;;;5079048;28;20036;-79
2021/12/06 00:15:04;;;;;;;25.50;19.98;;;3.40;99.90;;;;;;5078408;28;20488;-82
2021/12/06 00:17:30;;;;;;;24.98;19.88;;;3.40;99.90;;;;;;5075997;28;20044;-82
2021/12/06 00:19:56;;;;;;;24.15;19.17;;;3.40;99.90;;;;;;5087746;28;20097;-81
2021/12/06 00:22:23;;;;;;;24.25;19.60;;;3.40;99.90;;;;;;5091908;28;20047;-77
2021/12/06 00:24:54;;;;;;;26.10;19.30;;;3.40;99.90;;;;;;5092210;28;20041;-82
2021/12/06 00:27:21;;;;;;;25.90;20.20;;;3.40;99.90;;;;;;5070252;28;20103;-83
2021/12/06 00:29:48;;;;;;;24.60;20.08;;;3.30;99.90;;;;;;5092290;28;20044;-83
2021/12/06 00:32:14;;;;;;;24.85;19.92;;;3.30;99.90;;;;;;5093862;28;20051;-88
2021/12/06 00:34:40;;;;;;;23.58;19.67;;;3.30;99.90;;;;;;5074495;28;20075;-83
2021/12/06 00:37:18;;;;;;;27.15;19.23;;;3.30;99.90;;;;;;5092466;28;20508;-81
2021/12/06 00:39:47;;;;;;;25.80;20.00;;;3.30;99.90;;;;;;5066281;28;20041;-85
2021/12/06 00:42:13;;;;;;;26.13;19.80;;;3.30;99.90;;;;;;5055149;28;20053;-74
2021/12/06 00:44:39;;;;;;;26.40;20.50;;;3.20;99.90;;;;;;5086209;28;20040;-83
2021/12/06 00:47:05;;;;;;;24.58;20.25;;;3.20;99.90;;;;;;5075548;28;20389;-83
2021/12/06 00:49:32;;;;;;;27.52;21.52;;;3.20;99.90;;;;;;5091850;28;20050;-77
2021/12/06 00:51:58;;;;;;;27.70;21.25;;;3.20;99.90;;;;;;5075646;28;20051;-85
2021/12/06 00:54:23;;;;;;;26.13;19.67;;;3.20;99.90;;;;;;5074824;28;20416;-85
2021/12/06 00:56:49;;;;;;;25.92;20.38;;;3.20;99.90;;;;;;5091617;28;20055;-85
2021/12/06 00:59:15;;;;;;;26.83;21.92;;;3.20;99.90;;;;;;5074456;28;20189;-82
2021/12/06 01:01:40;;;;;;;30.25;22.30;;;3.20;99.90;;;;;;5091043;28;20458;-83
2021/12/06 01:04:07;;;;;;;27.65;21.63;;;3.20;99.90;;;;;;5092231;28;20029;-81
2021/12/06 01:06:32;;;;;;;29.85;21.33;;;3.20;99.90;;;;;;5092161;28;20039;-82
2021/12/06 01:08:59;;;;;;;29.10;21.63;;;3.20;99.90;;;;;;5087188;28;20403;-82
2021/12/06 01:11:24;;;;;;;25.52;19.98;;;3.10;99.90;;;;;;5093092;28;20608;-84
2021/12/06 01:13:50;;;;;;;28.52;22.30;;;3.10;99.90;;;;;;5125142;27;20126;-85
2021/12/06 01:16:16;;;;;;;27.85;21.50;;;3.20;99.90;;;;;;5126055;27;20370;-85
2021/12/06 01:18:43;;;;;;;28.50;22.08;;;3.20;99.90;;;;;;5091429;28;20040;-74
2021/12/06 01:30:02;;;;;;;26.25;21.48;;;3.10;99.90;;;;;;5088487;28;20218;-83
2021/12/06 01:31:57;;;;;;;28.20;20.60;;;3.20;99.90;;;;;;5080629;28;20408;-82
2021/12/06 01:39:53;;;;;;;33.58;23.52;;;3.20;99.90;;;;;;5077401;28;20048;-85
2021/12/06 01:42:19;;;;;;;33.05;23.08;;;3.20;99.90;;;;;;5116308;27;20055;-79
2021/12/06 01:44:48;;;;;;;31.33;23.48;;;3.20;99.90;;;;;;5105205;28;20135;-85
2021/12/06 01:47:18;;;;;;;29.23;22.23;;;3.20;99.90;;;;;;5079942;28;20048;-85
2021/12/06 01:50:07;;;;;;;31.30;23.90;;;3.20;99.90;;;;;;5124695;27;20139;-84
2021/12/06 01:52:39;;;;;;;32.20;22.42;;;3.20;99.90;;;;;;5073020;28;20047;-75
2021/12/06 01:55:08;;;;;;;31.88;23.98;;;3.20;99.90;;;;;;5074627;28;20048;-82
2021/12/06 01:57:34;;;;;;;30.58;21.42;;;3.20;99.90;;;;;;5098940;28;20044;-79
2021/12/06 02:00:00;;;;;;;29.42;21.63;;;3.20;99.90;;;;;;5063269;28;20051;-83
2021/12/06 02:02:29;;;;;;;27.95;20.45;;;3.20;99.90;;;;;;5090154;28;20781;-77
2021/12/06 02:04:55;;;;;;;26.42;20.25;;;3.10;99.90;;;;;;5073678;28;20056;-83
2021/12/06 02:07:24;;;;;;;28.50;21.13;;;3.10;99.90;;;;;;5090764;28;20054;-76
2021/12/06 02:09:51;;;;;;;27.65;21.23;;;3.10;99.90;;;;;;5090412;28;20056;-84
2021/12/06 02:12:19;;;;;;;30.23;21.95;;;3.00;99.90;;;;;;5072780;28;20040;-83
2021/12/06 02:15:04;;;;;;;31.42;22.42;;;3.00;99.90;;;;;;5073609;28;20166;-80
2021/12/06 02:17:35;;;;;;;32.17;22.60;;;3.00;99.90;;;;;;5090356;28;20055;-82
2021/12/06 02:20:06;;;;;;;29.83;21.90;;;3.00;99.90;;;;;;5098050;28;20389;-74
2021/12/06 02:22:36;;;;;;;34.90;23.58;;;3.00;99.90;;;;;;5113933;27;20048;-82
2021/12/06 02:25:04;;;;;;;32.33;22.90;;;3.00;99.90;;;;;;5091059;28;20090;-73
2021/12/06 02:27:30;;;;;;;32.97;23.77;;;3.00;99.90;;;;;;5081383;28;20531;-82
2021/12/06 02:29:58;;;;;;;32.17;23.00;;;3.00;99.90;;;;;;5073044;28;20031;-82
2021/12/06 02:32:24;;;;;;;35.33;23.63;;;3.00;99.90;;;;;;5073454;28;20036;-81
2021/12/06 02:34:53;;;;;;;35.90;23.73;;;2.90;99.90;;;;;;5072070;28;20048;-81
2021/12/06 02:37:22;;;;;;;35.42;23.67;;;3.00;99.90;;;;;;5084603;28;20087;-83
2021/12/06 02:39:49;;;;;;;35.30;24.08;;;3.00;99.90;;;;;;5070620;28;20089;-83
2021/12/06 02:42:15;;;;;;;32.78;22.75;;;3.00;99.90;;;;;;5091198;28;20040;-89
2021/12/06 02:44:43;;;;;;;35.45;24.38;;;3.00;99.90;;;;;;5093295;28;20402;-84
2021/12/06 02:47:08;;;;;;;35.95;23.55;;;3.00;99.90;;;;;;5092332;28;20052;-90
2021/12/06 02:49:34;;;;;;;36.80;24.33;;;3.00;99.90;;;;;;5110045;27;20043;-84
2021/12/06 02:52:01;;;;;;;35.10;23.23;;;3.00;99.90;;;;;;5106241;28;20049;-92
2021/12/06 02:54:27;;;;;;;32.92;23.10;;;3.00;99.90;;;;;;5078984;28;20047;-92
2021/12/06 02:57:17;;;;;;;32.97;22.83;;;3.00;99.90;;;;;;5075091;28;20040;-92
2021/12/06 02:59:44;;;;;;;36.45;24.08;;;3.00;99.90;;;;;;5092122;28;20052;-74
2021/12/06 03:02:14;;;;;;;33.92;23.50;;;3.00;99.90;;;;;;5092115;28;20055;-91
2021/12/06 03:04:41;;;;;;;33.33;23.55;;;3.00;99.90;;;;;;5092315;28;20094;-92
2021/12/06 03:07:08;;;;;;;34.90;22.80;;;3.00;99.90;;;;;;5092270;28;20040;-80
2021/12/06 03:09:37;;;;;;;33.88;23.10;;;3.00;99.90;;;;;;5073317;28;20063;-81
2021/12/06 03:12:06;;;;;;;36.67;25.05;;;3.00;99.90;;;;;;5073238;28;20131;-80
2021/12/06 03:14:36;;;;;;;34.75;23.70;;;3.00;99.90;;;;;;5072549;28;20040;-80
2021/12/06 03:17:05;;;;;;;33.03;23.55;;;3.00;99.90;;;;;;5072603;28;20036;-74
2021/12/06 03:19:31;;;;;;;35.17;24.15;;;3.00;99.90;;;;;;5089069;28;20113;-82
2021/12/06 03:21:57;;;;;;;33.97;23.40;;;3.00;99.90;;;;;;5088819;28;20052;-82
2021/12/06 03:24:23;;;;;;;37.75;23.80;;;3.00;99.90;;;;;;5102656;28;20500;-75
2021/12/06 03:26:50;;;;;;;35.50;24.10;;;3.00;99.90;;;;;;5104554;28;20048;-86
2021/12/06 03:29:16;;;;;;;34.40;22.95;;;3.00;99.90;;;;;;5082364;28;20508;-86
2021/12/06 03:31:42;;;;;;;35.95;23.92;;;3.00;99.90;;;;;;5094866;28;20051;-89
2021/12/06 03:34:09;;;;;;;38.85;23.55;;;3.00;99.90;;;;;;5094450;28;20488;-83
2021/12/06 03:36:37;;;;;;;35.10;23.38;;;3.00;99.90;;;;;;5093027;28;20101;-83
2021/12/06 03:39:07;;;;;;;33.10;22.95;;;3.10;99.90;;;;;;5110715;28;20059;-84
2021/12/06 03:41:33;;;;;;;38.50;23.85;;;3.10;99.90;;;;;;5090592;28;20056;-84
2021/12/06 03:44:00;;;;;;;39.40;24.67;;;3.00;99.90;;;;;;5090827;28;20037;-83
2021/12/06 03:46:28;;;;;;;30.70;22.58;;;3.00;99.90;;;;;;5093384;28;20050;-82
2021/12/06 03:48:54;;;;;;;37.30;24.63;;;3.10;99.90;;;;;;5111117;27;20053;-83
2021/12/06 03:51:20;;;;;;;38.75;25.17;;;3.00;99.90;;;;;;5086427;28;20512;-82
2021/12/06 03:53:46;;;;;;;34.70;24.15;;;3.00;99.90;;;;;;5101164;27;20123;-81
2021/12/06 03:56:13;;;;;;;35.47;24.70;;;3.10;99.90;;;;;;5073251;28;20053;-82
2021/12/06 03:58:39;;;;;;;37.10;23.90;;;3.00;99.90;;;;;;5085601;28;20117;-83
2021/12/06 04:01:06;;;;;;;38.08;25.63;;;3.00;99.90;;;;;;5109256;27;20139;-82
2021/12/06 04:03:36;;;;;;;36.53;25.02;;;3.00;99.90;;;;;;5106899;27;20127;-82
2021/12/06 04:06:04;;;;;;;39.42;25.05;;;3.00;99.90;;;;;;5081048;28;20043;-73
2021/12/06 04:08:30;;;;;;;36.08;25.23;;;3.00;99.90;;;;;;5076219;28;20454;-87
2021/12/06 04:10:56;;;;;;;39.35;25.33;;;3.00;99.90;;;;;;5093274;28;20032;-86
2021/12/06 04:13:22;;;;;;;38.90;23.90;;;3.00;99.90;;;;;;5117906;27;20044;-77
2021/12/06 04:15:49;;;;;;;38.80;25.27;;;3.00;99.90;;;;;;5094170;28;20097;-82
2021/12/06 04:18:15;;;;;;;36.40;25.17;;;3.10;99.90;;;;;;5075324;28;20046;-84
2021/12/06 04:20:41;;;;;;;35.10;24.33;;;3.10;99.90;;;;;;5092167;28;20437;-85
2021/12/06 04:23:09;;;;;;;39.20;24.08;;;3.10;99.90;;;;;;5087125;28;20389;-84
2021/12/06 04:25:36;;;;;;;37.55;24.50;;;3.10;99.90;;;;;;5075116;28;20040;-84
2021/12/06 04:28:06;;;;;;;35.90;23.30;;;3.10;99.90;;;;;;5075843;28;20044;-77
2021/12/06 04:30:34;;;;;;;38.03;24.00;;;3.10;99.90;;;;;;5075692;28;20401;-81
2021/12/06 04:33:00;;;;;;;35.17;23.42;;;3.00;99.90;;;;;;5058640;28;20056;-89
2021/12/06 04:35:28;;;;;;;36.90;24.63;;;3.00;99.90;;;;;;5065365;28;20032;-86
2021/12/06 04:37:54;;;;;;;37.97;23.38;;;3.00;99.90;;;;;;5075646;28;20044;-84
2021/12/06 04:40:20;;;;;;;37.30;22.90;;;3.00;99.90;;;;;;5074416;28;20189;-85
2021/12/06 04:42:46;;;;;;;35.38;22.48;;;3.00;99.90;;;;;;5092250;28;20048;-83
2021/12/06 04:45:14;;;;;;;38.45;22.52;;;3.00;99.90;;;;;;5124965;27;20048;-82
2021/12/06 04:47:40;;;;;;;35.35;22.40;;;3.00;99.90;;;;;;5051002;28;20069;-84
2021/12/06 04:50:08;;;;;;;38.88;23.35;;;3.00;99.90;;;;;;5069919;28;20047;-79
2021/12/06 04:52:35;;;;;;;39.92;23.30;;;3.00;99.90;;;;;;5063965;28;20045;-83
2021/12/06 04:55:08;;;;;;;42.08;22.95;;;3.00;99.90;;;;;;5062538;28;20515;-79
2021/12/06 04:57:39;;;;;;;45.33;24.30;;;3.00;99.90;;;;;;5074953;28;20074;-82
2021/12/06 05:00:15;;;;;;;41.72;23.55;;;3.10;99.90;;;;;;5075283;28;20048;-83
2021/12/06 05:02:41;;;;;;;46.15;25.00;;;3.00;99.90;;;;;;5090851;28;20500;-82
2021/12/06 05:05:12;;;;;;;48.88;25.15;;;3.00;99.90;;;;;;5118255;27;20048;-82
2021/12/06 05:07:44;;;;;;;42.53;24.77;;;3.00;99.90;;;;;;5072697;28;20729;-84
2021/12/06 05:10:11;;;;;;;44.10;25.30;;;3.00;99.90;;;;;;5075454;28;20082;-83
2021/12/06 05:12:38;;;;;;;47.75;24.10;;;3.00;99.90;;;;;;5074277;28;20052;-83
2021/12/06 05:15:06;;;;;;;50.55;26.15;;;3.00;99.90;;;;;;5074238;28;20044;-83
2021/12/06 05:17:33;;;;;;;55.05;26.40;;;3.00;99.90;;;;;;5091753;28;20051;-81
2021/12/06 05:19:58;;;;;;;49.53;26.33;;;3.00;99.90;;;;;;5091687;28;20036;-82
2021/12/06 05:22:25;;;;;;;64.88;28.02;;;3.00;99.90;;;;;;5088753;28;20440;-82
2021/12/06 05:24:51;;;;;;;60.42;27.73;;;3.00;99.90;;;;;;5093035;28;20040;-82
2021/12/06 05:27:23;;;;;;;56.47;26.00;;;3.00;99.90;;;;;;5111885;27;20040;-83
2021/12/06 05:29:52;;;;;;;68.80;28.00;;;3.00;99.90;;;;;;5089836;28;20044;-84
2021/12/06 05:32:20;;;;;;;62.55;27.73;;;2.90;99.90;;;;;;5072019;28;20049;-83
2021/12/06 05:34:48;;;;;;;69.80;27.77;;;2.90;99.90;;;;;;5090605;28;20036;-84
2021/12/06 05:37:15;;;;;;;70.35;27.23;;;2.90;99.90;;;;;;5071344;28;20052;-84
2021/12/06 05:39:40;;;;;;;68.20;29.00;;;2.90;99.90;;;;;;5096013;28;20072;-84
2021/12/06 05:42:11;;;;;;;78.80;29.63;;;2.90;99.90;;;;;;5091830;28;20040;-85
2021/12/06 05:44:38;;;;;;;68.43;28.48;;;2.90;99.90;;;;;;5073568;28;20040;-86
2021/12/06 05:47:05;;;;;;;66.80;27.40;;;2.90;99.90;;;;;;5090918;28;20040;-84
2021/12/06 05:49:31;;;;;;;61.95;26.98;;;2.90;99.90;;;;;;5088542;28;20076;-86
2021/12/06 05:51:57;;;;;;;63.03;27.77;;;2.90;99.90;;;;;;5091814;28;20036;-86
2021/12/06 05:54:23;;;;;;;75.85;29.83;;;3.00;99.90;;;;;;5091872;28;20484;-85
2021/12/06 05:56:50;;;;;;;65.47;27.63;;;3.00;99.90;;;;;;5091613;28;20043;-88
2021/12/06 05:59:16;;;;;;;65.07;27.58;;;3.00;99.90;;;;;;5075930;28;20040;-89
2021/12/06 06:01:42;;;;;;;67.85;28.70;;;2.90;99.90;;;;;;5091256;28;20044;-82
2021/12/06 06:04:08;;;;;;;61.80;28.13;;;2.90;99.90;;;;;;5073192;28;20050;-81
2021/12/06 06:06:36;;;;;;;68.50;29.40;;;2.90;99.90;;;;;;5091914;28;20059;-78
2021/12/06 06:09:06;;;;;;;66.32;27.67;;;3.00;99.90;;;;;;5090636;28;20393;-78
2021/12/06 06:11:34;;;;;;;60.05;27.08;;;3.00;99.90;;;;;;5091187;28;20070;-78
2021/12/06 06:14:04;;;;;;;60.88;27.85;;;3.00;99.90;;;;;;5090306;28;20040;-80
2021/12/06 06:16:35;;;;;;;66.20;29.00;;;3.00;99.90;;;;;;5073492;28;20044;-82
2021/12/06 06:19:01;;;;;;;61.30;27.50;;;3.00;99.90;;;;;;5114451;27;20040;-74
2021/12/06 06:21:27;;;;;;;67.28;30.20;;;3.00;99.90;;;;;;5073383;28;20044;-79
2021/12/06 06:23:53;;;;;;;69.20;27.67;;;3.00;99.90;;;;;;5090631;28;20047;-80
2021/12/06 06:26:18;;;;;;;70.00;29.50;;;3.10;99.90;;;;;;5072378;28;20042;-80
2021/12/06 06:28:44;;;;;;;75.28;29.77;;;3.10;99.90;;;;;;5091161;28;20040;-84
2021/12/06 06:31:09;;;;;;;66.82;29.85;;;3.10;99.90;;;;;;5084970;28;20093;-85
2021/12/06 06:33:35;;;;;;;85.95;31.45;;;3.10;99.90;;;;;;5090003;28;20052;-90
2021/12/06 06:36:01;;;;;;;90.50;32.40;;;3.10;99.90;;;;;;5091170;28;20076;-78
2021/12/06 06:38:27;;;;;;;77.22;31.52;;;3.10;99.90;;;;;;5074033;28;20488;-87
2021/12/06 06:40:53;;;;;;;84.50;33.15;;;3.10;99.90;;;;;;5111494;27;20048;-79
2021/12/06 06:43:19;;;;;;;71.32;29.77;;;3.10;99.90;;;;;;5066871;28;20040;-80
2021/12/06 06:45:45;;;;;;;86.95;31.65;;;3.10;99.90;;;;;;5105850;28;20044;-80
2021/12/06 06:48:12;;;;;;;79.97;32.72;;;3.10;99.90;;;;;;5086849;28;20412;-79
2021/12/06 06:50:38;;;;;;;81.63;32.42;;;3.10;99.90;;;;;;5102075;28;20080;-79
2021/12/06 06:53:04;;;;;;;81.28;32.45;;;3.20;99.90;;;;;;5058768;28;20076;-81
2021/12/06 06:55:30;;;;;;;81.28;33.13;;;3.20;99.90;;;;;;5086167;28;20462;-80
2021/12/06 06:57:55;;;;;;;78.95;32.55;;;3.20;99.90;;;;;;5086180;28;20131;-78
2021/12/06 07:00:29;;;;;;;76.35;32.80;;;3.20;99.90;;;;;;5085998;28;20044;-79
2021/12/06 07:02:55;;;;;;;80.32;32.45;;;3.20;99.90;;;;;;5039267;28;20049;-80
2021/12/06 07:05:22;;;;;;;76.43;32.75;;;3.20;99.90;;;;;;5055827;28;20127;-80
2021/12/06 07:07:47;;;;;;;71.95;32.38;;;3.20;99.90;;;;;;5069788;28;20044;-80
2021/12/06 07:10:13;;;;;;;73.82;32.33;;;3.20;99.90;;;;;;5093932;28;20032;-78
2021/12/06 07:12:46;;;;;;;73.90;31.67;;;3.20;99.90;;;;;;5106314;28;20447;-79
2021/12/06 07:15:16;;;;;;;65.35;29.08;;;3.30;99.90;;;;;;5061862;28;20112;-79
2021/12/06 07:17:44;;;;;;;69.85;32.78;;;3.20;99.90;;;;;;5106282;28;20473;-78
2021/12/06 07:20:10;;;;;;;73.30;30.40;;;3.20;99.90;;;;;;5103881;28;20098;-77
2021/12/06 07:22:36;;;;;;;63.75;30.67;;;3.20;99.90;;;;;;5057843;28;20480;-78
2021/12/06 07:25:04;;;;;;;66.85;30.95;;;3.20;99.90;;;;;;5067763;28;20041;-78
2021/12/06 07:27:29;;;;;;;61.22;29.58;;;3.20;99.90;;;;;;5049804;28;20451;-78
2021/12/06 07:29:55;;;;;;;58.72;29.33;;;3.20;99.90;;;;;;5059088;28;20048;-78
2021/12/06 07:32:21;;;;;;;62.05;30.63;;;3.20;99.90;;;;;;5086435;28;20127;-77
2021/12/06 07:34:48;;;;;;;60.92;29.15;;;3.20;99.90;;;;;;5071155;28;20048;-78
2021/12/06 07:37:13;;;;;;;56.83;29.25;;;3.20;99.90;;;;;;5049339;28;20400;-78
2021/12/06 07:39:39;;;;;;;56.05;28.50;;;3.20;99.90;;;;;;5049480;28;20044;-78
2021/12/06 07:42:05;;;;;;;58.45;29.63;;;3.30;99.90;;;;;;5036587;28;20048;-78
2021/12/06 07:44:31;;;;;;;55.75;27.30;;;3.20;99.90;;;;;;5081988;28;20047;-81
2021/12/06 07:46:57;;;;;;;55.75;28.02;;;3.20;99.90;;;;;;5089931;28;20074;-82
2021/12/06 07:49:24;;;;;;;63.55;29.67;;;3.20;99.90;;;;;;5088582;28;20056;-80
2021/12/06 07:51:50;;;;;;;53.22;27.85;;;3.30;99.90;;;;;;5071575;28;20075;-80
2021/12/06 07:54:15;;;;;;;55.55;29.98;;;3.20;99.90;;;;;;5076496;28;20041;-81
2021/12/06 07:56:43;;;;;;;60.80;29.92;;;3.20;99.90;;;;;;5084763;28;20063;-81
2021/12/06 07:59:09;;;;;;;54.78;28.77;;;3.20;99.90;;;;;;5075244;28;20036;-80
2021/12/06 08:01:35;;;;;;;61.75;30.13;;;3.20;99.90;;;;;;5060624;28;20052;-80
2021/12/06 08:04:01;;;;;;;59.70;29.88;;;3.10;99.90;;;;;;5052075;28;20048;-82
2021/12/06 08:06:27;;;;;;;63.58;28.73;;;3.10;99.90;;;;;;5056382;28;20036;-80
2021/12/06 08:08:54;;;;;;;58.15;28.15;;;3.10;99.90;;;;;;5072958;28;20123;-76
2021/12/06 08:11:21;;;;;;;56.20;29.10;;;3.10;99.90;;;;;;5092406;28;20070;-79
2021/12/06 08:13:51;;;;;;;53.65;28.20;;;3.10;99.90;;;;;;5076085;28;20028;-80
2021/12/06 08:16:27;;;;;;;55.67;28.95;;;3.20;99.90;;;;;;5076361;28;20039;-80
2021/12/06 08:18:53;;;;;;;59.97;29.17;;;3.20;99.90;;;;;;5092255;28;20043;-77
2021/12/06 08:21:20;;;;;;;51.40;29.42;;;3.20;99.90;;;;;;5093301;28;20039;-80
2021/12/06 08:23:49;;;;;;;54.35;29.10;;;3.10;99.90;;;;;;5092546;28;20488;-80
2021/12/06 08:26:16;;;;;;;51.83;27.83;;;3.20;99.90;;;;;;5092260;28;20087;-80
2021/12/06 08:28:42;;;;;;;59.50;29.58;;;3.10;99.90;;;;;;5075677;28;20040;-78
2021/12/06 08:31:09;;;;;;;52.17;28.15;;;3.10;99.90;;;;;;5093036;28;20036;-80
2021/12/06 08:33:36;;;;;;;52.25;28.98;;;3.10;99.90;;;;;;5105875;28;20052;-80
2021/12/06 08:36:04;;;;;;;53.60;29.35;;;3.10;99.90;;;;;;5072831;28;20097;-80
2021/12/06 08:38:32;;;;;;;55.78;30.67;;;3.10;99.90;;;;;;5105496;28;20493;-80
2021/12/06 08:41:00;;;;;;;59.70;31.05;;;3.10;99.90;;;;;;5072223;28;20044;-80
2021/12/06 08:43:26;;;;;;;65.97;32.60;;;3.10;99.90;;;;;;5072265;28;20059;-80
2021/12/06 08:45:56;;;;;;;63.83;31.40;;;3.10;99.90;;;;;;5105367;28;20040;-80
2021/12/06 08:48:25;;;;;;;60.83;31.88;;;3.10;99.90;;;;;;5106198;28;20440;-80
2021/12/06 08:50:53;;;;;;;64.18;34.60;;;3.10;99.90;;;;;;5088956;28;20071;-79
2021/12/06 08:53:19;;;;;;;57.05;30.15;;;3.10;99.90;;;;;;5105591;28;20139;-80
2021/12/06 08:55:45;;;;;;;68.63;34.10;;;3.10;99.90;;;;;;5054551;28;20128;-80
2021/12/06 08:58:11;;;;;;;68.85;34.13;;;3.10;99.90;;;;;;5055733;28;20135;-79
2021/12/06 09:00:39;;;;;;;65.65;34.22;;;3.10;99.90;;;;;;5070954;28;20071;-80
2021/12/06 09:03:05;;;;;;;66.80;34.47;;;3.20;99.90;;;;;;5055648;28;20049;-80
2021/12/06 09:05:37;;;;;;;61.95;32.55;;;3.20;99.90;;;;;;5055093;28;20036;-79
2021/12/06 09:08:03;;;;;;;56.83;29.75;;;3.30;99.90;;;;;;5055026;28;20068;-80
2021/12/06 09:10:30;;;;;;;53.90;29.50;;;3.30;99.90;;;;;;5055243;28;20088;-81
2021/12/06 09:12:56;;;;;;;51.80;28.25;;;3.30;99.90;;;;;;5071693;28;20040;-79
2021/12/06 09:15:23;;;;;;;45.03;25.80;;;3.30;99.90;;;;;;5054643;28;20076;-79
2021/12/06 09:17:51;;;;;;;41.53;23.75;;;3.30;99.90;;;;;;5054557;28;20058;-79
2021/12/06 09:20:19;;;;;;;46.95;25.23;;;3.30;99.90;;;;;;5071158;28;20048;-81
2021/12/06 09:22:47;;;;;;;46.40;24.40;;;3.30;99.90;;;;;;5053775;28;20109;-79
2021/12/06 09:25:14;;;;;;;45.88;24.70;;;3.20;99.90;;;;;;5071537;28;20400;-80
2021/12/06 09:27:40;;;;;;;44.45;25.90;;;3.20;99.90;;;;;;5053841;28;20102;-81
2021/12/06 09:30:09;;;;;;;44.10;23.48;;;3.20;99.90;;;;;;5054867;28;20040;-80
2021/12/06 09:32:35;;;;;;;44.35;23.85;;;3.20;99.90;;;;;;5071362;28;20121;-80
2021/12/06 09:35:03;;;;;;;45.33;23.50;;;3.20;99.90;;;;;;5054151;28;20135;-79
2021/12/06 09:37:29;;;;;;;37.13;21.23;;;3.10;99.90;;;;;;5071425;28;20044;-80
2021/12/06 09:39:56;;;;;;;37.20;22.63;;;3.10;99.90;;;;;;5055051;28;20048;-80
2021/12/06 09:42:22;;;;;;;39.92;22.83;;;3.00;99.90;;;;;;5054050;28;20041;-80
2021/12/06 09:44:48;;;;;;;38.00;22.73;;;3.00;99.90;;;;;;5054081;28;20044;-78
2021/12/06 09:47:16;;;;;;;40.20;22.63;;;3.00;99.90;;;;;;5055040;28;20048;-80
2021/12/06 09:49:42;;;;;;;39.30;22.48;;;3.10;99.90;;;;;;5053256;28;20052;-78
2021/12/06 09:52:07;;;;;;;38.10;21.48;;;3.10;99.90;;;;;;5054477;28;20417;-80
2021/12/06 09:54:37;;;;;;;41.05;23.33;;;3.10;99.90;;;;;;5070395;28;20045;-80
2021/12/06 09:57:07;;;;;;;40.53;21.63;;;3.10;99.90;;;;;;5070590;28;20500;-80
2021/12/06 09:59:37;;;;;;;40.30;23.23;;;3.10;99.90;;;;;;5070844;28;20041;-78
2021/12/06 10:02:08;;;;;;;44.05;24.08;;;3.10;99.90;;;;;;5054320;28;20055;-80
2021/12/06 10:04:38;;;;;;;42.60;23.75;;;3.10;99.90;;;;;;5053725;28;20044;-80
2021/12/06 10:07:07;;;;;;;44.53;23.92;;;3.10;99.90;;;;;;5054224;28;20658;-80
2021/12/06 10:09:33;;;;;;;41.85;23.65;;;3.20;99.90;;;;;;5054479;28;20036;-80
2021/12/06 10:12:00;;;;;;;42.70;22.70;;;3.10;99.90;;;;;;5069829;28;20048;-80
2021/12/06 10:14:27;;;;;;;46.97;23.60;;;3.10;99.90;;;;;;5077110;28;20123;-81
2021/12/06 10:16:53;;;;;;;44.78;23.00;;;3.10;99.90;;;;;;5094747;28;20044;-78
2021/12/06 10:19:21;;;;;;;42.55;22.58;;;3.10;99.90;;;;;;5074005;28;20131;-78
2021/12/06 10:21:47;;;;;;;40.42;23.25;;;3.20;99.90;;;;;;5090044;28;20048;-78
2021/12/06 10:24:16;;;;;;;51.53;25.40;;;3.10;99.90;;;;;;5063135;28;20041;-77
2021/12/06 10:26:42;;;;;;;43.17;22.65;;;3.10;99.90;;;;;;5082798;28;20055;-76
2021/12/06 10:29:12;;;;;;;39.97;22.85;;;3.10;99.90;;;;;;5091199;28;20488;-79
2021/12/06 10:31:43;;;;;;;48.38;24.75;;;3.20;99.90;;;;;;5072094;28;20032;-80
2021/12/06 10:34:13;;;;;;;52.25;25.75;;;3.20;99.90;;;;;;5073784;28;20031;-78
2021/12/06 10:36:39;;;;;;;48.63;28.10;;;3.20;99.90;;;;;;5073372;28;20047;-79
2021/12/06 10:39:08;;;;;;;50.38;27.48;;;3.20;99.90;;;;;;5107400;28;20511;-79
2021/12/06 10:41:37;;;;;;;57.47;27.95;;;3.20;99.90;;;;;;5089980;28;20052;-79
2021/12/06 10:44:09;;;;;;;57.70;27.70;;;3.20;99.90;;;;;;5090116;28;20044;-78
2021/12/06 10:46:37;;;;;;;;;;;3.30;99.90;;;;;;5090294;28;20056;-79
2021/12/06 10:49:07;;;;;;;63.17;29.98;;;3.20;99.90;;;;;;5089908;28;19920;-79
2021/12/06 10:51:34;;;;;;;63.22;29.27;;;3.20;99.90;;;;;;5124268;27;20043;-77
2021/12/06 10:54:19;;;;;;;64.55;29.65;;;3.20;99.90;;;;;;5065029;28;20048;-79
2021/12/06 10:56:48;;;;;;;58.33;28.83;;;3.20;99.90;;;;;;5089742;28;20125;-79
2021/12/06 10:59:19;;;;;;;58.58;27.52;;;3.30;99.90;;;;;;5089334;28;20063;-79
2021/12/06 11:01:46;;;;;;;51.20;26.58;;;3.30;99.90;;;;;;5088901;28;20458;-79
2021/12/06 11:04:16;;;;;;;46.28;24.95;;;3.30;99.90;;;;;;5089360;28;20511;-76
2021/12/06 11:06:50;;;;;;;44.22;22.95;;;3.30;99.90;;;;;;5093825;28;20404;-79
2021/12/06 11:09:23;;;;;;;48.13;23.80;;;3.30;99.90;;;;;;5087217;28;20054;-79
2021/12/06 11:11:56;;;;;;;36.90;20.95;;;3.40;99.90;;;;;;5069093;28;20113;-79
2021/12/06 11:14:25;;;;;;;37.40;21.20;;;3.40;99.90;;;;;;5089102;28;20412;-78
2021/12/06 11:16:58;;;;;;;37.17;20.67;;;3.40;99.90;;;;;;5072232;28;20075;-77
2021/12/06 11:19:25;;;;;;;;;;;3.50;99.90;;;;;;5060340;28;20067;-77
2021/12/06 11:22:02;;;;;;;33.65;18.25;;;3.40;99.90;;;;;;5068390;28;20410;-77
2021/12/06 11:24:39;;;;;;;33.10;20.58;;;3.50;99.90;;;;;;5108098;28;20075;-79
2021/12/06 11:27:10;;;;;;;39.78;21.63;;;3.50;99.90;;;;;;5099001;28;20039;-79
2021/12/06 11:29:40;;;;;;;40.92;21.35;;;3.50;99.90;;;;;;5072527;28;20376;-79
2021/12/06 11:32:17;;;;;;;36.22;20.83;;;3.50;99.90;;;;;;5118595;28;20036;-77
2021/12/06 11:35:14;;;;;;;42.17;23.30;;;3.40;99.90;;;;;;5068607;28;20408;-77
2021/12/06 11:37:44;;;;;;;45.20;23.45;;;3.40;99.90;;;;;;5094651;28;20044;-79
2021/12/06 11:40:25;;;;;;;50.80;25.50;;;3.40;99.90;;;;;;5124074;28;20044;-79
2021/12/06 11:43:00;;;;;;;42.22;23.63;;;3.40;99.90;;;;;;5094716;28;20048;-79
2021/12/06 11:45:42;;;;;;;50.10;25.92;;;3.40;99.90;;;;;;5072779;28;20048;-80
2021/12/06 11:48:10;;;;;;;;;;;3.50;99.90;;;;;;5103722;28;20416;-77
2021/12/06 11:50:46;;;;;;;50.58;26.63;;;3.40;99.90;;;;;;5109457;28;19991;-80
2021/12/06 11:53:13;;;;;;;49.55;27.15;;;3.70;99.90;;;;;;5070016;28;20036;-79
2021/12/06 11:55:49;;;;;;;44.28;24.50;;;3.50;99.90;;;;;;5055388;28;20041;-79
2021/12/06 11:58:33;;;;;;;44.78;25.92;;;3.60;99.90;;;;;;5070564;28;20406;-78
2021/12/06 12:01:10;;;;;;;50.03;26.80;;;3.60;99.90;;;;;;5093373;28;20147;-80
2021/12/06 12:03:38;;;;;;;54.15;28.35;;;3.60;99.90;;;;;;5073115;28;20067;-79
2021/12/06 12:06:30;;;;;;;50.03;26.48;;;3.60;99.90;;;;;;5050498;28;20075;-81
2021/12/06 12:09:10;;;;;;;49.35;27.27;;;3.60;99.90;;;;;;5036790;28;20568;-79
2021/12/06 12:12:05;;;;;;;51.55;28.33;;;3.60;99.90;;;;;;5035777;28;20451;-78
2021/12/06 12:14:40;;;;;;;58.47;28.67;;;3.70;99.90;;;;;;5103998;28;20053;-78
2021/12/06 12:17:09;;;;;;;54.42;29.40;;;3.70;99.90;;;;;;5043055;28;20045;-77
2021/12/06 12:19:35;;;;;;;56.63;29.95;;;3.60;99.90;;;;;;5085262;28;20048;-78
2021/12/06 12:22:01;;;;;;;64.30;32.47;;;3.70;99.90;;;;;;5049839;28;20094;-77
2021/12/06 12:24:27;;;;;;;54.33;30.35;;;3.90;99.90;;;;;;5086172;28;20044;-79
2021/12/06 12:26:59;;;;;;;57.25;30.38;;;3.70;99.90;;;;;;5087856;28;20040;-79
2021/12/06 12:29:27;;;;;;;54.15;29.55;;;3.80;99.90;;;;;;5089133;28;20037;-79
2021/12/06 12:32:00;;;;;;;57.08;29.00;;;3.80;99.90;;;;;;5070156;28;20405;-80
2021/12/06 12:34:29;;;;;;;56.88;30.00;;;3.80;99.90;;;;;;5071836;28;20040;-80
2021/12/06 12:36:55;;;;;;;60.65;31.25;;;3.80;99.90;;;;;;5077824;28;20102;-77
2021/12/06 12:39:22;;;;;;;59.88;30.90;;;3.70;99.90;;;;;;5102543;27;20040;-78
2021/12/06 12:41:51;;;;;;;53.47;29.75;;;3.70;99.90;;;;;;5100244;28;20041;-80
2021/12/06 12:44:17;;;;;;;55.80;30.80;;;3.80;99.90;;;;;;5120882;27;20048;-80
2021/12/06 12:46:45;;;;;;;50.72;28.35;;;3.80;99.90;;;;;;5107935;28;20450;-80
2021/12/06 12:49:24;;;;;;;58.28;30.73;;;3.80;99.90;;;;;;5072844;28;20114;-80
2021/12/06 12:51:57;;;;;;;55.05;29.20;;;3.70;99.90;;;;;;5054702;28;20463;-80
2021/12/06 12:54:25;;;;;;;58.95;30.05;;;3.70;99.90;;;;;;5065919;28;20499;-79
2021/12/06 12:57:14;;;;;;;57.35;29.75;;;3.70;99.90;;;;;;5103715;28;20040;-78